Time;durP1;ratioP1;P1;durP2;ratioP2;P2;SDS_P1;SDS_P2;PMS_P1;PMS_P2;Temp;Humidity;BMP_temperature;BMP_pressure;BME280_temperature;BME280_humidity;BME280_pressure;Samples;Min_cycle;Max_cycle;Signal;HPM_P1;HPM_P2
2022/07/05 00:01:04;;;;;;;4.15;2.88;;;;;;;17.89;62.08;102155.25;6305252;22;20033;-69
2022/07/05 00:03:29;;;;;;;4.22;2.85;;;;;;;17.79;62.57;102158.53;6305756;22;20010;-70
2022/07/05 00:05:56;;;;;;;3.72;2.80;;;;;;;17.66;62.90;102157.41;6253496;22;20007;-69
2022/07/05 00:08:21;;;;;;;3.85;2.90;;;;;;;17.60;63.01;102165.97;6306150;22;20010;-69
2022/07/05 00:10:47;;;;;;;4.40;2.75;;;;;;;17.63;63.53;102158.19;6304777;22;20007;-69
2022/07/05 00:13:13;;;;;;;4.75;2.80;;;;;;;17.68;63.44;102156.56;6305867;22;20008;-69
2022/07/05 00:15:41;;;;;;;4.95;3.33;;;;;;;17.67;63.51;102149.63;6306118;22;20033;-69
2022/07/05 00:18:07;;;;;;;5.03;2.80;;;;;;;17.65;63.14;102150.41;6305325;22;20062;-70
2022/07/05 00:20:32;;;;;;;3.55;2.70;;;;;;;17.65;63.48;102151.31;6306290;22;20003;-69
2022/07/05 00:22:58;;;;;;;4.90;2.60;;;;;;;17.65;63.56;102146.13;6254260;22;20011;-69
2022/07/05 00:25:23;;;;;;;6.10;3.28;;;;;;;17.65;63.46;102148.72;6279455;22;20438;-69
2022/07/05 00:27:49;;;;;;;4.50;2.75;;;;;;;17.72;63.42;102146.28;6306350;22;20007;-69
2022/07/05 00:30:14;;;;;;;5.45;2.85;;;;;;;17.69;63.48;102152.25;6304227;22;20087;-69
2022/07/05 00:32:40;;;;;;;3.50;2.97;;;;;;;17.70;63.50;102147.06;6305927;22;20420;-69
2022/07/05 00:35:07;;;;;;;3.85;3.03;;;;;;;17.65;63.74;102153.94;6305290;22;20021;-69
2022/07/05 00:37:33;;;;;;;4.47;3.03;;;;;;;17.70;63.59;102148.78;6306418;22;20011;-69
2022/07/05 00:39:58;;;;;;;5.97;3.10;;;;;;;17.68;63.63;102145.28;6305541;22;20007;-69
2022/07/05 00:42:24;;;;;;;4.60;3.00;;;;;;;17.69;63.67;102153.13;6252005;22;20003;-69
2022/07/05 00:44:50;;;;;;;6.13;3.20;;;;;;;17.64;63.75;102152.16;6305955;22;20038;-69
2022/07/05 00:47:15;;;;;;;4.97;2.90;;;;;;;17.46;63.87;102141.38;6305926;22;20007;-69
2022/07/05 00:49:42;;;;;;;5.18;3.17;;;;;;;17.37;64.18;102144.69;6305233;22;20027;-70
2022/07/05 00:52:08;;;;;;;4.03;2.72;;;;;;;17.25;64.46;102141.84;6305900;22;20311;-69
2022/07/05 00:54:36;;;;;;;4.60;2.95;;;;;;;17.30;65.13;102147.13;6304530;22;20006;-69
2022/07/05 00:57:02;;;;;;;4.07;2.53;;;;;;;17.15;65.05;102140.75;6303200;22;19999;-69
2022/07/05 00:59:29;;;;;;;6.97;3.20;;;;;;;17.19;64.75;102148.63;6305384;22;20323;-70
2022/07/05 01:01:55;;;;;;;5.65;3.20;;;;;;;17.10;65.07;102151.88;6304486;22;20003;-70
2022/07/05 01:04:21;;;;;;;3.90;3.00;;;;;;;17.08;65.49;102149.25;6305602;22;19999;-70
2022/07/05 01:06:48;;;;;;;3.53;2.78;;;;;;;17.13;65.42;102159.78;6304721;22;20493;-70
2022/07/05 01:09:16;;;;;;;5.38;3.20;;;;;;;17.12;65.16;102152.81;6303946;22;20003;-69
2022/07/05 01:11:49;;;;;;;4.90;3.25;;;;;;;17.16;64.93;102155.50;6306586;22;19999;-69
2022/07/05 01:14:20;;;;;;;5.28;2.80;;;;;;;17.13;65.40;102157.16;6305336;22;20035;-69
2022/07/05 01:16:48;;;;;;;5.78;3.10;;;;;;;17.08;65.58;102151.88;6306381;22;19999;-69
2022/07/05 01:19:14;;;;;;;5.40;3.05;;;;;;;17.00;65.56;102157.75;6304782;22;20041;-70
2022/07/05 01:21:46;;;;;;;5.57;3.13;;;;;;;16.86;65.77;102145.31;6307173;22;20434;-69
2022/07/05 01:24:14;;;;;;;3.40;3.10;;;;;;;16.70;66.20;102139.72;6304512;22;20010;-69
2022/07/05 01:26:40;;;;;;;3.45;2.80;;;;;;;16.60;66.72;102149.00;6277964;22;20073;-70
2022/07/05 01:29:07;;;;;;;4.10;3.03;;;;;;;16.56;66.84;102149.75;6306496;22;20149;-69
2022/07/05 01:31:35;;;;;;;4.28;3.22;;;;;;;16.60;66.76;102151.59;6278180;22;20051;-69
2022/07/05 01:34:01;;;;;;;4.63;3.43;;;;;;;16.55;66.84;102143.69;6305274;22;20517;-69
2022/07/05 01:36:27;;;;;;;5.05;3.30;;;;;;;16.51;66.95;102148.78;6305992;22;20306;-70
2022/07/05 01:38:52;;;;;;;6.95;3.28;;;;;;;16.39;67.55;102154.56;6305991;22;20034;-69
2022/07/05 01:41:18;;;;;;;4.28;3.28;;;;;;;16.41;67.35;102146.81;6275705;22;20085;-69
2022/07/05 01:43:43;;;;;;;6.32;3.33;;;;;;;16.32;67.63;102152.66;6277245;22;19991;-69
2022/07/05 01:46:10;;;;;;;4.43;3.25;;;;;;;16.34;67.93;102153.56;6305038;22;20011;-69
2022/07/05 01:48:38;;;;;;;6.53;3.30;;;;;;;16.26;67.91;102152.47;6305919;22;20003;-69
2022/07/05 01:51:07;;;;;;;3.95;3.10;;;;;;;16.23;67.92;102148.09;6305406;22;20621;-69
2022/07/05 01:53:33;;;;;;;4.45;3.15;;;;;;;16.15;68.28;102143.56;6307571;22;20011;-69
2022/07/05 01:56:03;;;;;;;4.15;3.00;;;;;;;16.21;68.29;102142.00;6306619;22;20060;-69
2022/07/05 01:58:30;;;;;;;6.45;2.90;;;;;;;16.24;68.39;102147.25;6308033;22;20212;-69
2022/07/05 02:00:57;;;;;;;4.97;3.97;;;;;;;16.25;68.56;102150.72;6308373;22;20007;-70
2022/07/05 02:03:23;;;;;;;6.40;4.07;;;;;;;16.28;68.43;102148.22;6278631;22;20325;-68
2022/07/05 02:05:49;;;;;;;5.25;4.22;;;;;;;16.34;68.31;102143.19;6305814;22;20000;-70
2022/07/05 02:08:16;;;;;;;6.18;4.30;;;;;;;16.23;68.49;102142.91;6280966;22;20015;-69
2022/07/05 02:10:43;;;;;;;5.55;4.50;;;;;;;16.22;68.77;102148.06;6307111;22;20014;-69
2022/07/05 02:13:09;;;;;;;7.88;4.40;;;;;;;16.16;68.96;102141.00;6305544;22;20056;-70
2022/07/05 02:15:36;;;;;;;4.88;4.32;;;;;;;16.24;68.96;102141.19;6307959;22;20006;-69
2022/07/05 02:18:03;;;;;;;6.65;4.90;;;;;;;16.21;68.49;102148.91;6306291;22;20007;-69
2022/07/05 02:20:29;;;;;;;7.55;5.00;;;;;;;16.11;69.12;102149.50;6306038;22;20003;-69
2022/07/05 02:22:55;;;;;;;9.95;5.32;;;;;;;16.07;69.54;102149.41;6307772;22;20090;-69
2022/07/05 02:25:20;;;;;;;5.97;5.30;;;;;;;16.11;69.42;102142.59;6305845;22;20031;-69
2022/07/05 02:27:46;;;;;;;10.93;5.78;;;;;;;16.17;69.49;102149.66;6307024;22;20015;-69
2022/07/05 02:30:13;;;;;;;6.55;5.70;;;;;;;16.19;69.47;102150.56;6305554;22;20330;-69
2022/07/05 02:32:38;;;;;;;8.60;5.60;;;;;;;16.22;69.17;102145.47;6306618;22;19994;-69
2022/07/05 02:35:05;;;;;;;8.05;5.53;;;;;;;16.11;69.06;102147.78;6305468;22;19999;-69
2022/07/05 02:37:30;;;;;;;6.80;5.28;;;;;;;15.95;69.61;102150.81;6305610;22;20003;-69
2022/07/05 02:39:56;;;;;;;6.80;5.60;;;;;;;15.85;69.73;102149.69;6277297;22;20129;-69
2022/07/05 02:42:22;;;;;;;5.72;5.03;;;;;;;15.81;70.04;102153.03;6306584;22;20035;-68
2022/07/05 02:44:47;;;;;;;6.88;4.78;;;;;;;15.81;69.76;102153.03;6305510;22;20061;-69
2022/07/05 02:47:13;;;;;;;7.03;4.30;;;;;;;15.75;69.85;102158.94;6306163;22;20007;-68
2022/07/05 02:49:38;;;;;;;6.78;4.65;;;;;;;15.76;70.25;102160.69;6307644;22;20014;-68
2022/07/05 02:52:04;;;;;;;6.65;4.65;;;;;;;15.81;70.41;102166.88;6306063;22;20011;-68
2022/07/05 02:54:29;;;;;;;5.03;4.53;;;;;;;15.91;69.87;102160.25;6305870;22;20147;-68
2022/07/05 02:56:55;;;;;;;7.47;5.15;;;;;;;15.85;69.64;102162.66;6307135;22;20014;-69
2022/07/05 02:59:20;;;;;;;6.18;4.72;;;;;;;15.69;69.82;102155.28;6305637;22;20011;-69
2022/07/05 03:01:45;;;;;;;6.63;5.07;;;;;;;15.66;70.11;102160.41;6308032;22;20007;-68
2022/07/05 03:04:11;;;;;;;6.07;5.28;;;;;;;15.62;70.31;102161.13;6305740;22;20881;-68
2022/07/05 03:06:36;;;;;;;7.78;5.60;;;;;;;15.62;70.60;102166.31;6278057;22;20369;-69
2022/07/05 03:09:02;;;;;;;7.13;5.65;;;;;;;15.68;70.77;102169.09;6307408;22;20014;-69
2022/07/05 03:11:27;;;;;;;6.50;5.50;;;;;;;15.72;70.85;102168.38;6305470;22;20011;-69
2022/07/05 03:13:53;;;;;;;8.23;5.70;;;;;;;15.74;70.74;102169.28;6307089;22;20010;-69
2022/07/05 03:16:18;;;;;;;8.38;5.88;;;;;;;15.65;70.44;102171.59;6252568;22;20038;-69
2022/07/05 03:18:44;;;;;;;7.30;5.53;;;;;;;15.61;70.38;102169.75;6307256;22;20003;-69
2022/07/05 03:21:09;;;;;;;7.15;5.60;;;;;;;15.51;70.39;102168.59;6304397;22;20007;-69
2022/07/05 03:23:35;;;;;;;7.40;5.10;;;;;;;15.41;70.88;102176.91;6305992;22;20007;-69
2022/07/05 03:26:00;;;;;;;6.82;5.70;;;;;;;15.46;71.17;102184.00;6305952;22;20011;-68
2022/07/05 03:28:26;;;;;;;8.55;4.97;;;;;;;15.42;70.88;102184.78;6305543;22;20021;-69
2022/07/05 03:30:51;;;;;;;8.55;6.28;;;;;;;15.35;71.20;102188.03;6277472;22;20041;-69
2022/07/05 03:33:16;;;;;;;6.00;4.90;;;;;;;15.29;71.14;102180.06;6305183;22;20011;-69
2022/07/05 03:35:42;;;;;;;7.32;5.35;;;;;;;15.26;71.45;102173.06;6277466;22;20013;-69
2022/07/05 03:38:07;;;;;;;7.90;5.32;;;;;;;15.25;71.65;102167.84;6305355;22;20064;-68
2022/07/05 03:40:33;;;;;;;5.97;5.10;;;;;;;15.31;72.01;102178.38;6306916;22;20014;-68
2022/07/05 03:42:58;;;;;;;6.97;6.28;;;;;;;15.38;71.87;102177.72;6303735;22;20007;-68
2022/07/05 03:45:24;;;;;;;7.93;6.93;;;;;;;15.43;72.32;102188.22;6304567;22;20153;-69
2022/07/05 03:47:49;;;;;;;9.45;6.28;;;;;;;15.51;71.97;102190.19;6281218;22;20015;-69
2022/07/05 03:50:14;;;;;;;9.25;6.20;;;;;;;15.49;71.74;102176.31;6279131;22;20022;-69
2022/07/05 03:52:40;;;;;;;9.40;6.40;;;;;;;15.42;71.62;102179.59;6305566;22;20074;-68
2022/07/05 03:55:06;;;;;;;8.43;6.07;;;;;;;15.42;72.30;102182.19;6307137;22;19999;-69
2022/07/05 03:57:31;;;;;;;9.77;6.20;;;;;;;15.52;71.78;102184.19;6304974;22;20003;-69
2022/07/05 03:59:57;;;;;;;8.30;5.93;;;;;;;15.56;71.99;102186.03;6278213;22;20011;-69
2022/07/05 04:02:22;;;;;;;7.35;6.05;;;;;;;15.57;71.79;102184.31;6277008;22;20613;-69
2022/07/05 04:04:47;;;;;;;8.18;5.82;;;;;;;15.59;72.02;102185.22;6306798;22;20407;-69
2022/07/05 04:07:13;;;;;;;11.40;5.85;;;;;;;15.54;71.77;102185.13;6305116;22;20003;-69
2022/07/05 04:09:38;;;;;;;8.82;6.05;;;;;;;15.51;71.87;102195.38;6306317;22;20061;-68
2022/07/05 04:12:05;;;;;;;8.45;5.88;;;;;;;15.46;72.27;102190.91;6305870;22;20011;-69
2022/07/05 04:14:30;;;;;;;7.60;5.60;;;;;;;15.51;72.53;102194.50;6306060;22;20535;-69
2022/07/05 04:16:55;;;;;;;6.97;5.80;;;;;;;15.52;72.28;102191.97;6306145;22;20003;-69
2022/07/05 04:19:21;;;;;;;7.70;5.82;;;;;;;15.53;72.14;102192.84;6306989;22;20010;-69
2022/07/05 04:21:46;;;;;;;8.80;6.22;;;;;;;15.53;72.46;102201.53;6278523;22;20010;-69
2022/07/05 04:24:12;;;;;;;9.07;6.32;;;;;;;15.52;72.25;102197.13;6305657;22;20008;-69
2022/07/05 04:26:37;;;;;;;7.18;6.07;;;;;;;15.55;71.99;102205.03;6306069;22;20482;-69
2022/07/05 04:29:03;;;;;;;10.98;5.85;;;;;;;15.52;72.36;102202.31;6305866;22;20007;-69
2022/07/05 04:31:28;;;;;;;8.23;6.20;;;;;;;15.55;72.53;102198.97;6304814;22;20064;-69
2022/07/05 04:33:54;;;;;;;9.48;5.95;;;;;;;15.55;72.50;102206.75;6307246;22;20310;-69
2022/07/05 04:36:19;;;;;;;8.90;6.13;;;;;;;15.51;72.24;102194.50;6306437;22;20011;-69
2022/07/05 04:38:44;;;;;;;7.90;6.65;;;;;;;15.43;72.40;102199.47;6278265;22;20003;-69
2022/07/05 04:41:10;;;;;;;9.13;5.95;;;;;;;15.52;72.59;102197.13;6305121;22;20003;-69
2022/07/05 04:43:35;;;;;;;7.75;6.10;;;;;;;15.51;72.69;102203.16;6304859;22;20011;-69
2022/07/05 04:46:01;;;;;;;7.72;6.38;;;;;;;15.54;72.66;102203.28;6305242;22;19999;-69
2022/07/05 04:48:26;;;;;;;10.20;7.05;;;;;;;15.54;72.87;102200.69;6252850;22;20429;-69
2022/07/05 04:50:52;;;;;;;9.40;6.70;;;;;;;15.57;72.82;102199.88;6255005;22;20322;-68
2022/07/05 04:53:18;;;;;;;9.10;7.25;;;;;;;15.54;73.22;102198.09;6306041;22;20379;-69
2022/07/05 04:55:43;;;;;;;8.90;7.05;;;;;;;15.64;73.62;102201.84;6309021;22;20019;-69
2022/07/05 04:58:08;;;;;;;7.50;6.60;;;;;;;15.70;73.60;102198.53;6253296;22;20022;-69
2022/07/05 05:00:34;;;;;;;8.90;7.60;;;;;;;15.76;73.47;102190.94;6305630;22;20010;-70
2022/07/05 05:02:59;;;;;;;9.15;6.97;;;;;;;15.81;73.98;102195.41;6307951;22;20422;-68
2022/07/05 05:05:25;;;;;;;9.68;7.30;;;;;;;15.82;73.01;102194.56;6305954;22;20032;-68
2022/07/05 05:07:50;;;;;;;10.73;7.47;;;;;;;15.86;73.01;102198.13;6304773;22;20065;-68
2022/07/05 05:10:16;;;;;;;8.27;7.25;;;;;;;15.89;73.58;102197.34;6270488;22;20334;-69
2022/07/05 05:12:41;;;;;;;13.10;8.02;;;;;;;15.90;73.60;102200.00;6305324;22;20007;-69
2022/07/05 05:15:10;;;;;;;10.85;8.57;;;;;;;15.90;73.30;102200.00;6305108;22;20049;-69
2022/07/05 05:17:40;;;;;;;10.48;8.23;;;;;;;15.99;73.79;102209.72;6304377;22;20008;-69
2022/07/05 05:20:16;;;;;;;12.27;8.45;;;;;;;16.05;73.51;102213.38;6304605;22;20315;-69
2022/07/05 05:22:42;;;;;;;13.55;7.68;;;;;;;16.03;73.33;102206.38;6306174;22;20082;-67
2022/07/05 05:25:08;;;;;;;11.80;8.07;;;;;;;16.03;73.02;102221.97;6306883;22;20381;-69
2022/07/05 05:27:34;;;;;;;12.63;7.90;;;;;;;16.05;73.56;102223.75;6304721;22;20315;-69
2022/07/05 05:29:59;;;;;;;12.45;8.27;;;;;;;16.07;74.36;102223.78;6306584;22;20026;-68
2022/07/05 05:32:25;;;;;;;9.35;7.70;;;;;;;16.14;73.73;102225.72;6306168;22;20306;-68
2022/07/05 05:34:50;;;;;;;11.27;8.23;;;;;;;16.13;74.05;102228.25;6278981;22;20023;-69
2022/07/05 05:37:16;;;;;;;10.43;7.50;;;;;;;16.15;74.64;102231.78;6306595;22;20337;-68
2022/07/05 05:39:41;;;;;;;8.68;7.72;;;;;;;16.21;74.71;102237.16;6282013;22;20060;-69
2022/07/05 05:42:07;;;;;;;14.50;8.18;;;;;;;16.22;74.17;102236.31;6278179;22;20008;-69
2022/07/05 05:44:32;;;;;;;11.07;7.78;;;;;;;16.19;74.95;102234.47;6307036;22;20007;-69
2022/07/05 05:46:57;;;;;;;10.30;8.30;;;;;;;16.24;74.94;102238.09;6306398;22;20010;-69
2022/07/05 05:49:23;;;;;;;11.48;8.10;;;;;;;16.29;75.31;102239.09;6307141;22;20291;-69
2022/07/05 05:51:48;;;;;;;11.48;8.50;;;;;;;16.35;76.16;102249.63;6305013;22;20552;-69
2022/07/05 05:54:14;;;;;;;11.13;7.40;;;;;;;16.41;75.63;102235.06;6306292;22;20007;-68
2022/07/05 05:56:39;;;;;;;12.00;8.35;;;;;;;16.43;75.47;102236.84;6305958;22;20015;-69
2022/07/05 05:59:04;;;;;;;11.07;8.00;;;;;;;16.49;75.41;102244.78;6302706;22;20011;-69
2022/07/05 06:01:30;;;;;;;11.27;8.50;;;;;;;16.52;75.71;102238.81;6308115;22;20007;-69
2022/07/05 06:03:55;;;;;;;10.10;8.30;;;;;;;16.56;75.80;102238.94;6305019;22;20334;-69
2022/07/05 06:06:21;;;;;;;10.43;8.82;;;;;;;16.59;75.50;102246.78;6306029;22;20007;-69
2022/07/05 06:08:46;;;;;;;11.82;8.50;;;;;;;16.65;74.71;102246.06;6306087;22;20057;-69
2022/07/05 06:11:13;;;;;;;13.38;8.85;;;;;;;16.71;74.57;102250.59;6306061;22;20056;-69
2022/07/05 06:13:38;;;;;;;13.18;8.25;;;;;;;16.73;75.08;102254.09;6305302;22;20011;-69
2022/07/05 06:16:06;;;;;;;10.13;8.65;;;;;;;16.77;75.03;102261.13;6306041;22;20003;-69
2022/07/05 06:18:31;;;;;;;12.50;8.30;;;;;;;16.79;74.48;102254.22;6306416;22;20003;-69
2022/07/05 06:20:57;;;;;;;10.82;8.05;;;;;;;16.80;74.30;102256.00;6306013;22;20029;-70
2022/07/05 06:23:22;;;;;;;10.73;8.18;;;;;;;16.83;75.01;102254.34;6278465;22;20007;-70
2022/07/05 06:25:47;;;;;;;11.48;9.18;;;;;;;16.88;73.49;102254.47;6279893;22;20039;-69
2022/07/05 06:28:13;;;;;;;10.35;8.63;;;;;;;16.88;73.87;102251.88;6305498;22;20334;-70
2022/07/05 06:30:39;;;;;;;10.68;8.25;;;;;;;16.92;73.66;102256.28;6280400;22;20011;-70
2022/07/05 06:33:04;;;;;;;15.10;8.85;;;;;;;17.02;74.06;102265.19;6278409;22;20456;-70
2022/07/05 06:35:31;;;;;;;9.82;8.25;;;;;;;17.04;73.50;102260.91;6306773;22;20006;-70
2022/07/05 06:38:02;;;;;;;13.10;9.00;;;;;;;17.08;73.44;102263.63;6277819;22;20013;-70
2022/07/05 06:40:33;;;;;;;9.88;8.35;;;;;;;17.15;73.18;102265.50;6277189;22;20037;-70
2022/07/05 06:43:01;;;;;;;11.35;9.10;;;;;;;17.19;73.16;102261.28;6278649;22;20004;-70
2022/07/05 06:45:26;;;;;;;11.52;8.85;;;;;;;17.24;73.59;102266.59;6304511;22;20410;-70
2022/07/05 06:47:59;;;;;;;9.02;7.93;;;;;;;17.30;72.34;102258.94;6306981;22;20007;-70
2022/07/05 06:50:29;;;;;;;13.57;8.32;;;;;;;17.36;72.68;102266.88;6279705;22;20325;-69
2022/07/05 06:52:55;;;;;;;11.02;7.97;;;;;;;17.41;71.44;102263.53;6305843;22;19999;-70
2022/07/05 06:55:22;;;;;;;10.90;7.70;;;;;;;17.52;71.43;102258.53;6304791;22;20048;-70
2022/07/05 06:57:47;;;;;;;10.65;7.60;;;;;;;17.65;71.60;102265.78;6306677;22;20090;-69
2022/07/05 07:00:13;;;;;;;11.27;8.50;;;;;;;17.75;70.61;102260.78;6277957;22;20026;-70
2022/07/05 07:02:39;;;;;;;10.25;7.93;;;;;;;17.80;71.01;102251.34;6278254;22;20007;-70
2022/07/05 07:05:05;;;;;;;10.88;8.25;;;;;;;17.87;69.91;102261.03;6303116;22;20011;-70
2022/07/05 07:10:15;;;;;;;11.15;7.75;;;;;;;18.04;69.50;102272.66;6304952;22;20476;-70
2022/07/05 07:12:41;;;;;;;9.43;7.95;;;;;;;18.15;70.48;102271.16;6304958;22;20003;-69
2022/07/05 07:15:07;;;;;;;12.60;8.13;;;;;;;18.28;69.81;102274.00;6301979;22;20003;-69
2022/07/05 07:17:32;;;;;;;9.93;7.20;;;;;;;18.31;69.57;102272.31;6305153;22;20037;-69
2022/07/05 07:19:58;;;;;;;14.77;7.53;;;;;;;18.33;69.11;102265.41;6306949;22;20438;-70
2022/07/05 07:22:23;;;;;;;11.43;7.32;;;;;;;18.35;69.68;102263.72;6305559;22;20010;-69
2022/07/05 07:24:48;;;;;;;11.45;7.43;;;;;;;18.42;69.91;102265.56;6305180;22;20057;-69
2022/07/05 07:27:14;;;;;;;11.75;7.45;;;;;;;18.45;69.59;102264.75;6303982;22;20068;-69
2022/07/05 07:29:39;;;;;;;8.68;7.10;;;;;;;18.48;69.52;102277.81;6305454;22;20421;-69
2022/07/05 07:32:07;;;;;;;8.52;6.80;;;;;;;18.55;71.33;102284.03;6305524;22;20078;-69
2022/07/05 07:34:33;;;;;;;10.20;6.28;;;;;;;18.59;70.47;102278.03;6305724;22;20003;-69
2022/07/05 07:36:59;;;;;;;9.68;6.28;;;;;;;18.61;70.19;102279.78;6303919;22;20004;-70
2022/07/05 07:39:26;;;;;;;12.52;6.60;;;;;;;18.69;70.27;102286.06;6306082;22;20013;-69
2022/07/05 07:41:51;;;;;;;11.57;6.40;;;;;;;18.73;70.67;102282.63;6277874;22;20424;-70
2022/07/05 07:44:17;;;;;;;10.48;6.20;;;;;;;18.74;70.10;102281.78;6303899;22;20006;-69
2022/07/05 07:46:43;;;;;;;8.82;5.88;;;;;;;18.83;70.44;102294.09;6305142;22;20003;-70
2022/07/05 07:49:09;;;;;;;10.15;6.30;;;;;;;18.86;71.09;102293.28;6303657;22;20010;-69
2022/07/05 07:51:35;;;;;;;11.82;5.85;;;;;;;18.88;69.71;102295.06;6304499;22;20011;-70
2022/07/05 07:54:00;;;;;;;12.65;5.90;;;;;;;18.93;69.92;102290.81;6304333;22;20003;-69
2022/07/05 07:56:26;;;;;;;11.30;6.28;;;;;;;18.95;72.12;102288.22;6304064;22;20086;-69
2022/07/05 07:58:52;;;;;;;10.85;6.28;;;;;;;19.00;70.83;102286.56;6305806;22;19999;-70
2022/07/05 08:01:18;;;;;;;8.70;5.72;;;;;;;19.06;69.90;102278.84;6304932;22;20057;-69
2022/07/05 08:03:44;;;;;;;11.85;6.05;;;;;;;19.09;71.36;102286.69;6305863;22;20021;-69
2022/07/05 08:06:11;;;;;;;11.60;6.32;;;;;;;19.13;70.66;102298.06;6304182;22;20425;-70
2022/07/05 08:08:40;;;;;;;15.48;6.50;;;;;;;19.17;70.73;102285.13;6306635;22;20106;-69
2022/07/05 08:11:08;;;;;;;10.30;6.28;;;;;;;19.17;69.19;102299.84;6276812;22;20097;-69
2022/07/05 08:13:33;;;;;;;10.30;5.75;;;;;;;19.21;69.10;102296.44;6304710;22;20014;-69
2022/07/05 08:15:59;;;;;;;8.05;6.32;;;;;;;19.27;70.22;102306.97;6304936;22;20306;-69
2022/07/05 08:23:52;;;;;;;11.40;4.93;;;;;;;19.54;69.42;102296.06;6303072;22;20072;-68
2022/07/05 08:26:18;;;;;;;9.80;4.55;;;;;;;19.55;68.87;102295.22;6273008;22;20011;-68
2022/07/05 08:28:43;;;;;;;8.63;5.18;;;;;;;19.60;69.55;102290.09;6276106;22;20389;-70
2022/07/05 08:31:09;;;;;;;11.13;5.03;;;;;;;19.61;70.02;102297.94;6270147;22;20003;-70
2022/07/05 08:33:34;;;;;;;11.90;5.60;;;;;;;19.67;69.01;102298.03;6275181;22;20034;-69
2022/07/05 08:36:00;;;;;;;11.95;5.15;;;;;;;19.70;68.51;102302.38;6274422;22;20441;-69
2022/07/05 08:38:26;;;;;;;9.73;4.43;;;;;;;19.71;68.50;102289.34;6273294;22;20079;-69
2022/07/05 08:40:54;;;;;;;10.43;5.18;;;;;;;19.79;68.73;102287.75;6273243;22;20007;-69
2022/07/05 08:43:22;;;;;;;7.47;4.38;;;;;;;19.98;69.22;102290.56;6272949;22;20000;-68
2022/07/05 08:45:49;;;;;;;14.80;6.53;;;;;;;20.14;68.01;102291.59;6275148;22;20010;-70
2022/07/05 08:48:19;;;;;;;11.65;6.05;;;;;;;20.22;68.36;102283.03;6271836;22;20011;-69
2022/07/05 08:50:48;;;;;;;9.63;5.65;;;;;;;20.36;67.67;102293.59;6274179;22;20378;-69
2022/07/05 08:53:15;;;;;;;9.63;5.00;;;;;;;20.45;66.96;102287.63;6273801;22;20039;-69
2022/07/05 08:55:41;;;;;;;8.07;4.97;;;;;;;20.56;67.55;102283.38;6274090;22;19999;-69
2022/07/05 08:58:07;;;;;;;11.98;5.43;;;;;;;20.59;65.08;102280.81;6275023;22;20095;-69
2022/07/05 09:00:32;;;;;;;14.13;4.65;;;;;;;20.77;65.97;102282.72;6272077;22;20039;-69
2022/07/05 09:02:58;;;;;;;10.85;4.35;;;;;;;20.79;66.05;102280.97;6273535;22;20384;-69
2022/07/05 09:05:25;;;;;;;12.40;5.28;;;;;;;20.83;64.64;102278.41;6273985;22;20031;-69
2022/07/05 09:08:01;;;;;;;8.20;5.40;;;;;;;20.88;64.67;102289.78;6273939;22;20387;-69
2022/07/05 09:10:31;;;;;;;9.82;5.20;;;;;;;20.93;65.08;102278.47;6273877;22;20042;-69
2022/07/05 09:12:57;;;;;;;11.25;5.15;;;;;;;21.06;64.79;102286.44;6272850;22;20008;-68
2022/07/05 09:15:23;;;;;;;11.60;6.03;;;;;;;21.06;63.98;102286.44;6273639;22;20380;-69
2022/07/05 09:17:48;;;;;;;13.13;5.53;;;;;;;21.16;63.60;102283.00;6273319;22;20015;-68
2022/07/05 09:20:17;;;;;;;9.50;3.92;;;;;;;21.27;61.59;102288.31;6271222;22;20012;-68
2022/07/05 09:22:52;;;;;;;8.77;4.40;;;;;;;21.09;60.04;102289.06;6271847;22;20133;-68
2022/07/05 09:25:21;;;;;;;6.60;3.92;;;;;;;21.10;60.33;102292.53;6274324;22;20274;-69
2022/07/05 09:27:56;;;;;;;9.45;3.80;;;;;;;21.10;59.67;102290.81;6305486;22;20045;-68
2022/07/05 09:30:39;;;;;;;8.95;4.72;;;;;;;21.15;60.08;102288.22;6307582;22;20011;-68
2022/07/05 09:33:06;;;;;;;9.43;4.78;;;;;;;21.16;61.74;102295.19;6306151;22;20007;-68
2022/07/05 09:35:39;;;;;;;6.65;2.58;;;;;;;21.10;58.35;102293.41;6303789;22;20003;-68
2022/07/05 09:38:06;;;;;;;5.28;2.50;;;;;;;21.09;57.36;102293.41;6303835;22;20086;-69
2022/07/05 09:40:50;;;;;;;5.45;2.10;;;;;;;21.14;58.42;102296.94;6277804;22;20281;-68
2022/07/05 09:43:18;;;;;;;6.55;2.45;;;;;;;21.11;58.19;102295.19;6305332;22;20007;-69
2022/07/05 09:45:53;;;;;;;4.38;2.50;;;;;;;21.14;59.36;102304.78;6304680;22;19999;-69
2022/07/05 09:48:18;;;;;;;6.60;2.25;;;;;;;21.10;59.38;102289.94;6304985;22;20015;-69
2022/07/05 09:50:44;;;;;;;7.78;2.78;;;;;;;21.06;56.67;102296.91;6306912;22;20008;-69
2022/07/05 09:53:11;;;;;;;6.80;2.83;;;;;;;21.02;56.47;102294.22;6304689;22;20007;-69
2022/07/05 09:55:37;;;;;;;7.40;3.00;;;;;;;21.00;58.51;102296.84;6305052;22;20004;-68
2022/07/05 09:58:03;;;;;;;5.82;3.08;;;;;;;20.98;57.78;102295.94;6306395;22;20006;-68
2022/07/05 10:00:29;;;;;;;6.25;3.28;;;;;;;20.95;58.73;102293.31;6307052;22;19999;-69
2022/07/05 10:03:03;;;;;;;8.55;3.42;;;;;;;20.97;59.35;102293.31;6307370;22;20003;-68
2022/07/05 10:05:30;;;;;;;8.88;4.13;;;;;;;20.92;58.87;102290.66;6305431;22;20060;-69
2022/07/05 10:07:58;;;;;;;10.88;3.83;;;;;;;20.95;59.26;102295.94;6278535;22;20007;-70
2022/07/05 10:10:29;;;;;;;9.50;3.78;;;;;;;20.93;58.39;102291.53;6306344;22;20082;-69
2022/07/05 10:12:59;;;;;;;7.13;3.58;;;;;;;20.99;59.03;102289.88;6306143;22;20086;-69
2022/07/05 10:15:27;;;;;;;7.43;2.70;;;;;;;21.16;59.63;102288.22;6306737;22;20345;-69
2022/07/05 10:18:11;;;;;;;8.00;2.78;;;;;;;21.28;58.47;102290.06;6280208;22;20009;-69
2022/07/05 10:20:37;;;;;;;5.93;3.00;;;;;;;21.37;57.04;102282.31;6306718;22;20007;-69
2022/07/05 10:23:07;;;;;;;7.57;2.80;;;;;;;21.50;58.02;102287.59;6307066;22;20430;-69
2022/07/05 10:25:35;;;;;;;6.93;2.75;;;;;;;21.58;56.60;102285.91;6307215;22;20064;-69
2022/07/05 10:28:01;;;;;;;7.03;3.05;;;;;;;21.61;56.69;102283.31;6308892;22;20434;-69
2022/07/05 10:30:27;;;;;;;6.72;2.72;;;;;;;21.59;55.86;102292.88;6278539;22;20037;-69
2022/07/05 10:32:54;;;;;;;6.65;2.67;;;;;;;21.51;54.96;102291.97;6280921;22;20011;-69
2022/07/05 10:35:21;;;;;;;5.90;2.50;;;;;;;21.52;55.72;102291.97;6282339;22;19999;-69
2022/07/05 10:37:47;;;;;;;7.18;2.50;;;;;;;21.61;55.63;102285.94;6308812;22;20003;-69
2022/07/05 10:40:14;;;;;;;5.13;2.28;;;;;;;21.66;55.60;102278.97;6307405;22;20007;-68
2022/07/05 10:42:41;;;;;;;5.65;2.20;;;;;;;21.78;54.45;102278.13;6279529;22;20499;-68
2022/07/05 10:45:32;;;;;;;5.20;2.00;;;;;;;21.83;53.25;102277.28;6308193;22;20053;-68
2022/07/05 10:48:16;;;;;;;4.13;1.67;;;;;;;21.89;52.60;102281.66;6308337;22;20003;-69
2022/07/05 10:50:53;;;;;;;7.95;1.90;;;;;;;21.94;52.83;102272.09;6307226;22;20069;-69
2022/07/05 10:53:24;;;;;;;5.43;1.98;;;;;;;22.02;52.64;102272.97;6306782;22;20003;-68
2022/07/05 10:55:57;;;;;;;6.72;1.88;;;;;;;22.07;51.83;102271.25;6309129;22;20018;-69
2022/07/05 10:58:46;;;;;;;3.35;1.73;;;;;;;22.13;52.07;102280.91;6307308;22;20033;-69
2022/07/05 11:01:11;;;;;;;5.80;2.17;;;;;;;21.97;49.96;102285.22;6306399;22;20012;-69
2022/07/05 11:03:49;;;;;;;6.05;2.00;;;;;;;21.96;51.28;102283.44;6308463;22;20090;-69
2022/07/05 11:06:38;;;;;;;5.13;1.70;;;;;;;21.98;52.18;102280.84;6305986;22;20011;-70
2022/07/05 11:09:04;;;;;;;5.65;2.22;;;;;;;21.87;50.96;102289.53;6307167;22;20003;-70
2022/07/05 11:11:31;;;;;;;4.10;1.60;;;;;;;21.84;49.65;102293.88;6306826;22;20505;-70
2022/07/05 11:13:59;;;;;;;4.68;1.63;;;;;;;21.78;50.65;102299.06;6306672;22;20003;-70
2022/07/05 11:16:35;;;;;;;3.70;1.60;;;;;;;21.75;52.13;102307.81;6307170;22;20344;-70
2022/07/05 11:19:11;;;;;;;5.38;1.83;;;;;;;21.73;52.79;102304.31;6308438;22;20089;-70
2022/07/05 11:21:39;;;;;;;4.32;1.70;;;;;;;21.62;53.99;102299.00;6279608;22;19999;-68
2022/07/05 11:24:19;;;;;;;7.80;1.90;;;;;;;21.66;52.69;102300.78;6306926;22;20029;-70
2022/07/05 11:26:47;;;;;;;4.20;1.63;;;;;;;21.58;52.24;102304.22;6307969;22;20275;-70
2022/07/05 11:29:43;;;;;;;5.82;1.90;;;;;;;21.62;52.52;102300.75;6307486;22;20087;-70